createdAt,value
2023-05-22T00:01:52.487Z,1.40
2023-05-22T00:04:59.542Z,1.83
2023-05-22T00:08:06.265Z,1.77
2023-05-22T00:11:10.344Z,1.30
2023-05-22T00:14:15.024Z,0.80
2023-05-22T00:17:19.317Z,1.13
2023-05-22T00:20:24.136Z,1.67
2023-05-22T00:23:29.183Z,3.25
2023-05-22T00:26:33.293Z,0.80
2023-05-22T00:29:37.302Z,1.20
2023-05-22T00:32:41.887Z,1.67
2023-05-22T00:35:46.349Z,1.10
2023-05-22T00:38:50.824Z,1.80
2023-05-22T00:41:54.879Z,2.10
2023-05-22T00:44:59.205Z,1.23
2023-05-22T00:48:03.768Z,1.80
2023-05-22T00:51:09.358Z,0.90
2023-05-22T00:54:14.835Z,0.70
2023-05-22T00:57:20.183Z,2.40
2023-05-22T01:00:25.036Z,1.38
2023-05-22T01:03:29.355Z,0.93
2023-05-22T01:06:34.185Z,1.42
2023-05-22T01:09:38.377Z,1.70
2023-05-22T01:13:02.863Z,1.10
2023-05-22T01:17:00.938Z,1.60
2023-05-22T01:20:30.073Z,1.08
2023-05-22T01:24:12.822Z,1.48
2023-05-22T01:27:36.037Z,0.90
2023-05-22T01:30:55.318Z,1.33
2023-05-22T01:34:02.326Z,0.50
2023-05-22T01:37:07.014Z,0.80
2023-05-22T01:40:13.050Z,1.98
2023-05-22T01:43:17.619Z,1.13
2023-05-22T01:46:22.403Z,1.17
2023-05-22T01:49:27.253Z,1.40
2023-05-22T01:52:42.629Z,1.17
2023-05-22T01:56:08.525Z,1.00
2023-05-22T01:59:31.767Z,1.58
2023-05-22T02:02:39.217Z,1.00
2023-05-22T02:05:45.722Z,0.88
2023-05-22T02:08:50.198Z,0.88
2023-05-22T02:11:54.619Z,1.40
2023-05-22T02:14:59.233Z,0.80
2023-05-22T02:18:04.742Z,1.10
2023-05-22T02:21:11.937Z,2.28
2023-05-22T02:24:16.063Z,3.00
2023-05-22T02:27:23.359Z,2.10
2023-05-22T02:30:27.519Z,1.02
2023-05-22T02:33:32.748Z,1.58
2023-05-22T02:36:38.197Z,1.83
2023-05-22T02:39:42.368Z,1.23
2023-05-22T02:42:46.475Z,1.20
2023-05-22T02:45:50.693Z,2.10
2023-05-22T02:48:54.703Z,2.10
2023-05-22T02:51:58.737Z,1.02
2023-05-22T02:55:03.028Z,1.67
2023-05-22T02:58:12.081Z,1.67
2023-05-22T03:01:16.601Z,1.00
2023-05-22T03:04:21.233Z,0.90
2023-05-22T03:07:27.215Z,1.17
2023-05-22T03:10:31.559Z,1.00
2023-05-22T03:13:35.704Z,1.42
2023-05-22T03:16:40.366Z,1.20
2023-05-22T03:19:45.027Z,0.80
2023-05-22T03:22:49.222Z,0.68
2023-05-22T03:25:54.891Z,0.73
2023-05-22T03:29:02.968Z,1.45
2023-05-22T03:32:07.660Z,2.73
2023-05-22T03:35:12.082Z,1.60
2023-05-22T03:38:16.518Z,1.88
2023-05-22T03:41:20.998Z,2.65
2023-05-22T03:44:25.595Z,1.73
2023-05-22T03:47:30.970Z,1.25
2023-05-22T03:50:34.927Z,1.60
2023-05-22T03:53:39.518Z,1.85
2023-05-22T03:56:44.874Z,1.10
2023-05-22T04:02:53.362Z,1.70
2023-05-22T04:06:00.470Z,1.85
2023-05-22T04:09:05.260Z,2.40
2023-05-22T04:12:12.140Z,1.00
2023-05-22T04:15:16.403Z,1.30
2023-05-22T04:18:20.528Z,1.80
2023-05-22T04:21:25.396Z,0.70
2023-05-22T04:24:29.339Z,2.13
2023-05-22T04:27:36.289Z,1.25
2023-05-22T04:30:41.181Z,2.20
2023-05-22T04:33:50.634Z,2.17
2023-05-22T04:36:57.088Z,2.63
2023-05-22T04:43:13.463Z,2.03
2023-05-22T04:46:17.720Z,1.95
2023-05-22T04:49:21.890Z,2.20
2023-05-22T04:52:26.969Z,1.17
2023-05-22T04:55:34.690Z,1.00
2023-05-22T04:58:39.386Z,2.95
2023-05-22T05:01:49.133Z,2.00
2023-05-22T05:04:54.033Z,3.63
2023-05-22T05:07:58.501Z,1.75
2023-05-22T05:11:02.849Z,1.33
2023-05-22T05:14:07.062Z,1.35
2023-05-22T05:17:11.167Z,2.90
2023-05-22T05:20:18.317Z,1.25
2023-05-22T05:23:23.263Z,1.15
2023-05-22T05:26:28.115Z,1.38
2023-05-22T05:29:32.197Z,1.10
2023-05-22T05:32:41.827Z,1.40
2023-05-22T05:39:02.346Z,0.73
2023-05-22T05:42:10.159Z,2.05
2023-05-22T05:45:16.764Z,1.23
2023-05-22T05:48:21.100Z,2.33
2023-05-22T05:51:25.917Z,1.10
2023-05-22T05:54:30.515Z,1.20
2023-05-22T05:57:39.372Z,0.70
2023-05-22T06:00:46.654Z,1.30
2023-05-22T06:03:51.168Z,0.95
2023-05-22T06:07:02.728Z,1.38
2023-05-22T06:10:21.545Z,0.90
2023-05-22T06:13:34.945Z,3.15
2023-05-22T06:16:59.176Z,1.83
2023-05-22T06:20:03.725Z,1.00
2023-05-22T06:23:08.403Z,0.50
2023-05-22T06:26:13.091Z,0.60
2023-05-22T06:29:18.543Z,3.88
2023-05-22T06:32:24.327Z,0.70
2023-05-22T06:35:30.350Z,0.35
2023-05-22T06:41:38.956Z,0.80
2023-05-22T06:44:45.557Z,1.52
2023-05-22T06:47:55.031Z,1.42
2023-05-22T06:50:59.799Z,3.95
2023-05-22T06:54:07.506Z,1.30
2023-05-22T06:57:13.301Z,0.93
2023-05-22T07:00:22.072Z,3.65
2023-05-22T07:03:39.715Z,1.83
2023-05-22T07:07:01.974Z,0.52
2023-05-22T07:10:06.636Z,1.67
2023-05-22T07:13:10.800Z,1.10
2023-05-22T07:16:16.184Z,0.70
2023-05-22T07:22:24.793Z,1.98
2023-05-22T07:25:29.892Z,5.53
2023-05-22T07:28:34.501Z,19.70
2023-05-22T07:31:48.787Z,47.13
2023-05-22T07:34:54.101Z,21.63
2023-05-22T07:37:58.494Z,1.20
2023-05-22T07:41:05.578Z,0.90
2023-05-22T07:44:11.157Z,9.65
2023-05-22T07:47:15.324Z,21.70
2023-05-22T07:50:20.078Z,3.53
2023-05-22T07:56:33.456Z,4.25
2023-05-22T07:59:38.290Z,5.28
2023-05-22T08:02:42.756Z,1.58
2023-05-22T08:05:47.290Z,1.65
2023-05-22T08:08:53.915Z,1.70
2023-05-22T08:11:57.921Z,0.60
2023-05-22T08:15:01.700Z,1.20
2023-05-22T08:18:09.065Z,1.70
2023-05-22T08:21:13.272Z,2.13
2023-05-22T08:24:17.330Z,2.53
2023-05-22T08:27:21.446Z,2.20
2023-05-22T08:30:25.598Z,2.55
2023-05-22T08:33:29.544Z,1.58
2023-05-22T08:36:34.868Z,1.38
2023-05-22T08:39:38.869Z,2.30
2023-05-22T08:42:44.009Z,2.58
2023-05-22T08:45:56.890Z,1.60
2023-05-22T08:49:02.683Z,1.80
2023-05-22T08:52:27.034Z,1.20
2023-05-22T08:55:32.260Z,7.68
2023-05-22T08:58:38.526Z,49.20
2023-05-22T09:01:43.018Z,23.33
2023-05-22T09:04:47.627Z,45.93
2023-05-22T09:07:51.805Z,48.77
2023-05-22T09:10:57.234Z,41.75
2023-05-22T09:17:18.510Z,3.97
2023-05-22T09:20:22.797Z,3.25
2023-05-22T09:23:29.605Z,2.20
2023-05-22T09:26:34.422Z,2.60
2023-05-22T09:30:00.806Z,2.25
2023-05-22T09:33:12.611Z,1.30
2023-05-22T09:36:17.860Z,1.95
2023-05-22T09:39:24.545Z,1.77
2023-05-22T09:42:29.393Z,1.70
2023-05-22T09:45:37.031Z,2.75
2023-05-22T09:48:41.242Z,1.02
2023-05-22T09:51:50.306Z,1.40
2023-05-22T09:54:57.464Z,1.50
2023-05-22T09:58:06.230Z,1.75
2023-05-22T10:01:14.944Z,2.42
2023-05-22T10:04:20.122Z,2.95
2023-05-22T10:10:33.135Z,3.15
2023-05-22T10:13:38.422Z,3.30
2023-05-22T10:16:46.148Z,2.88
2023-05-22T10:19:51.507Z,3.20
2023-05-22T10:22:56.915Z,3.30
2023-05-22T10:26:01.013Z,4.00
2023-05-22T10:29:15.926Z,2.80
2023-05-22T10:32:31.812Z,2.70
2023-05-22T10:35:57.516Z,3.00
2023-05-22T10:39:35.203Z,2.55
2023-05-22T10:42:39.747Z,6.80
2023-05-22T10:45:47.636Z,4.40
2023-05-22T10:48:54.178Z,4.47
2023-05-22T10:51:58.548Z,4.40
2023-05-22T10:55:07.046Z,10.55
2023-05-22T10:58:33.178Z,12.32
2023-05-22T11:04:51.447Z,9.07
2023-05-22T11:08:31.180Z,10.20
2023-05-22T11:11:35.077Z,14.65
2023-05-22T11:14:39.403Z,13.18
2023-05-22T11:17:54.155Z,13.30
2023-05-22T11:21:01.271Z,17.92
2023-05-22T11:24:10.325Z,15.88
2023-05-22T11:27:14.899Z,17.45
2023-05-22T11:30:19.264Z,16.77
2023-05-22T11:33:25.005Z,15.20
2023-05-22T11:39:34.112Z,18.38
2023-05-22T11:42:39.413Z,13.85
2023-05-22T11:45:43.528Z,10.75
2023-05-22T11:48:49.117Z,12.43
2023-05-22T11:54:59.393Z,9.05
2023-05-22T11:58:05.591Z,26.80
2023-05-22T12:01:09.617Z,18.63
2023-05-22T12:04:13.883Z,7.43
2023-05-22T12:07:18.209Z,4.78
2023-05-22T12:10:22.223Z,10.60
2023-05-22T12:13:30.259Z,9.68
2023-05-22T12:16:38.248Z,9.38
2023-05-22T12:19:43.044Z,9.77
2023-05-22T12:22:47.275Z,7.37
2023-05-22T12:26:01.837Z,6.95
2023-05-22T12:29:05.933Z,8.45
2023-05-22T12:32:14.737Z,5.95
2023-05-22T12:35:19.908Z,9.45
2023-05-22T12:38:24.322Z,6.07
2023-05-22T12:41:28.282Z,5.90
2023-05-22T12:44:32.346Z,6.68
2023-05-22T12:47:36.461Z,6.28
2023-05-22T12:50:42.271Z,6.25
2023-05-22T12:53:46.256Z,5.30
2023-05-22T12:56:50.714Z,4.35
2023-05-22T12:59:54.643Z,4.60
2023-05-22T13:03:01.442Z,4.63
2023-05-22T13:06:05.740Z,4.70
2023-05-22T13:09:09.780Z,4.50
2023-05-22T13:12:13.813Z,5.80
2023-05-22T13:15:18.681Z,5.55
2023-05-22T13:18:23.130Z,4.17
2023-05-22T13:21:27.727Z,4.20
2023-05-22T13:24:33.452Z,4.65
2023-05-22T13:27:37.485Z,5.70
2023-05-22T13:30:41.954Z,4.78
2023-05-22T13:33:46.134Z,6.82
2023-05-22T13:36:50.315Z,5.95
2023-05-22T13:39:54.474Z,4.78
2023-05-22T13:42:58.586Z,6.32
2023-05-22T13:46:02.580Z,5.18
2023-05-22T13:49:06.674Z,4.55
2023-05-22T13:52:10.912Z,5.15
2023-05-22T13:55:15.531Z,4.75
2023-05-22T13:58:19.649Z,5.72
2023-05-22T14:01:24.884Z,5.18
2023-05-22T14:04:29.247Z,5.10
2023-05-22T14:07:33.879Z,5.97
2023-05-22T14:10:39.631Z,5.73
2023-05-22T14:16:47.843Z,5.45
2023-05-22T14:19:52.001Z,7.55
2023-05-22T14:22:58.159Z,9.10
2023-05-22T14:26:02.600Z,9.82
2023-05-22T14:29:06.482Z,8.80
2023-05-22T14:32:11.004Z,8.10
2023-05-22T14:35:17.252Z,7.45
2023-05-22T14:38:21.692Z,5.88
2023-05-22T14:41:25.878Z,4.85
2023-05-22T14:44:33.006Z,5.82
2023-05-22T14:47:37.622Z,5.80
2023-05-22T14:50:41.617Z,5.53
2023-05-22T14:53:45.975Z,4.57
2023-05-22T14:56:50.162Z,4.40
2023-05-22T14:59:53.949Z,3.80
2023-05-22T15:02:58.028Z,4.25
2023-05-22T15:06:01.876Z,5.78
2023-05-22T15:09:06.355Z,5.07
2023-05-22T15:12:10.800Z,5.13
2023-05-22T15:15:14.976Z,4.85
2023-05-22T15:18:22.700Z,4.78
2023-05-22T15:21:26.826Z,3.78
2023-05-22T15:24:31.419Z,3.65
2023-05-22T15:27:36.432Z,3.72
2023-05-22T15:30:42.710Z,3.90
2023-05-22T15:33:47.511Z,4.30
2023-05-22T15:36:52.192Z,4.60
2023-05-22T15:39:56.456Z,5.83
2023-05-22T15:43:04.681Z,4.38
2023-05-22T15:46:09.288Z,5.65
2023-05-22T15:49:13.384Z,4.32
2023-05-22T15:52:17.584Z,4.35
2023-05-22T15:55:21.840Z,4.60
2023-05-22T15:58:25.687Z,4.35
2023-05-22T16:01:30.329Z,5.28
2023-05-22T16:04:34.492Z,4.70
2023-05-22T16:07:39.102Z,5.13
2023-05-22T16:10:46.184Z,4.57
2023-05-22T16:13:51.091Z,4.90
2023-05-22T16:16:55.159Z,4.78
2023-05-22T16:19:59.342Z,5.07
2023-05-22T16:23:03.437Z,4.97
2023-05-22T16:26:07.463Z,4.55
2023-05-22T16:29:11.566Z,4.65
2023-05-22T16:32:15.457Z,4.40
2023-05-22T16:35:20.315Z,5.00
2023-05-22T16:38:24.765Z,3.17
2023-05-22T16:41:29.013Z,3.55
2023-05-22T16:44:33.150Z,2.97
2023-05-22T16:47:49.637Z,2.70
2023-05-22T16:51:12.467Z,3.45
2023-05-22T16:54:32.092Z,2.75
2023-05-22T16:57:47.207Z,2.58
2023-05-22T17:01:11.157Z,3.10
2023-05-22T17:04:40.243Z,3.35
2023-05-22T17:07:58.432Z,3.30
2023-05-22T17:11:35.677Z,2.80
2023-05-22T17:14:44.682Z,3.42
2023-05-22T17:17:52.050Z,3.92
2023-05-22T17:21:07.402Z,7.75
2023-05-22T17:24:15.429Z,5.97
2023-05-22T17:27:31.988Z,4.57
2023-05-22T17:30:40.605Z,4.53
2023-05-22T17:33:46.097Z,4.50
2023-05-22T17:36:50.364Z,4.18
2023-05-22T17:39:54.589Z,3.80
2023-05-22T17:43:01.170Z,4.43
2023-05-22T17:46:08.647Z,4.90
2023-05-22T17:49:12.759Z,4.00
2023-05-22T17:52:22.130Z,3.30
2023-05-22T17:55:32.834Z,3.40
2023-05-22T17:58:37.028Z,4.53
2023-05-22T18:01:54.963Z,4.18
2023-05-22T18:05:05.051Z,4.22
2023-05-22T18:08:09.666Z,3.47
2023-05-22T18:11:16.355Z,3.92
2023-05-22T18:14:20.690Z,4.10
2023-05-22T18:17:34.884Z,3.50
2023-05-22T18:20:39.585Z,4.20
2023-05-22T18:23:45.933Z,3.57
2023-05-22T18:26:58.086Z,3.08
2023-05-22T18:30:02.321Z,2.83
2023-05-22T18:33:14.862Z,3.20
2023-05-22T18:36:25.523Z,2.97
2023-05-22T18:39:33.201Z,4.70
2023-05-22T18:42:44.176Z,4.25
2023-05-22T18:45:53.427Z,4.10
2023-05-22T18:49:03.420Z,3.35
2023-05-22T18:52:14.402Z,3.20
2023-05-22T18:55:19.446Z,2.88
2023-05-22T18:58:24.749Z,2.90
2023-05-22T19:01:28.704Z,2.72
2023-05-22T19:04:32.826Z,2.50
2023-05-22T19:07:36.932Z,2.15
2023-05-22T19:10:42.249Z,2.30
2023-05-22T19:13:46.676Z,2.13
2023-05-22T19:16:50.810Z,1.80
2023-05-22T19:19:55.509Z,1.77
2023-05-22T19:23:55.822Z,2.60
2023-05-22T19:28:13.799Z,2.53
2023-05-22T19:32:32.229Z,2.47
2023-05-22T19:36:50.036Z,2.40
2023-05-22T19:41:08.761Z,2.30
2023-05-22T19:45:26.811Z,2.50
2023-05-22T19:49:45.316Z,2.38
2023-05-22T19:54:03.976Z,2.78
2023-05-22T20:03:14.058Z,4.05
2023-05-22T20:12:51.642Z,4.50
2023-05-22T20:17:09.501Z,4.18
2023-05-22T20:21:27.880Z,4.85
2023-05-22T20:29:47.215Z,4.50
2023-05-22T20:34:04.702Z,4.78
2023-05-22T20:38:23.086Z,5.93
2023-05-22T20:42:43.041Z,5.20
2023-05-22T20:47:01.229Z,5.35
2023-05-22T20:51:20.560Z,4.43
2023-05-22T20:55:41.017Z,4.60
2023-05-22T21:03:47.211Z,3.85
2023-05-22T21:08:05.249Z,3.50
2023-05-22T21:12:27.987Z,2.70
2023-05-22T21:16:51.718Z,2.80
2023-05-22T21:21:09.989Z,2.97
2023-05-22T21:25:28.024Z,3.08
2023-05-22T21:29:51.809Z,2.70
2023-05-22T21:38:18.690Z,3.13
2023-05-22T21:42:45.946Z,2.88
2023-05-22T21:47:04.915Z,2.35
2023-05-22T21:51:22.921Z,2.80
2023-05-22T21:55:41.055Z,2.08
2023-05-22T21:59:59.058Z,4.00
2023-05-22T22:04:17.878Z,2.17
2023-05-22T22:08:35.802Z,3.80
2023-05-22T22:12:54.619Z,1.85
2023-05-22T22:17:12.929Z,2.65
2023-05-22T22:21:30.484Z,2.08
2023-05-22T22:29:32.737Z,1.70
2023-05-22T22:33:51.366Z,3.40
2023-05-22T22:38:10.157Z,2.15
2023-05-22T22:42:28.137Z,2.47
2023-05-22T22:46:49.146Z,3.03
2023-05-22T22:51:07.195Z,4.28
2023-05-22T22:55:25.175Z,2.33
2023-05-22T22:59:43.153Z,1.98
2023-05-22T23:03:12.300Z,1.52
2023-05-22T23:06:20.286Z,1.20
2023-05-22T23:09:26.794Z,1.83
2023-05-22T23:12:33.724Z,1.33
2023-05-22T23:15:37.803Z,1.75
2023-05-22T23:18:41.867Z,1.35
2023-05-22T23:21:45.795Z,2.90
2023-05-22T23:24:50.725Z,2.00
2023-05-22T23:27:54.965Z,1.15
2023-05-22T23:30:58.971Z,1.30
2023-05-22T23:34:02.979Z,1.50
2023-05-22T23:37:07.049Z,1.20
2023-05-22T23:40:11.299Z,1.13
2023-05-22T23:43:15.332Z,1.17
2023-05-22T23:46:21.928Z,1.75
2023-05-22T23:49:26.004Z,1.70
2023-05-22T23:52:30.128Z,1.30
2023-05-22T23:55:34.144Z,4.65
2023-05-22T23:58:39.347Z,2.55
